createdAt,value
2019-05-19T00:01:26.639Z,73.53
2019-05-19T00:03:55.316Z,73.30
2019-05-19T00:06:23.910Z,73.29
2019-05-19T00:08:52.390Z,73.28
2019-05-19T00:11:20.898Z,73.36
2019-05-19T00:13:49.419Z,73.61
2019-05-19T00:16:17.945Z,73.85
2019-05-19T00:18:46.465Z,73.53
2019-05-19T00:21:14.952Z,73.51
2019-05-19T00:23:43.456Z,73.34
2019-05-19T00:26:12.037Z,73.55
2019-05-19T00:28:40.604Z,73.61
2019-05-19T00:31:09.130Z,73.49
2019-05-19T00:33:37.667Z,73.61
2019-05-19T00:36:06.241Z,73.27
2019-05-19T00:38:34.724Z,73.20
2019-05-19T00:41:03.310Z,73.57
2019-05-19T00:43:31.887Z,73.56
2019-05-19T00:46:00.678Z,73.41
2019-05-19T00:48:29.238Z,73.48
2019-05-19T00:50:57.819Z,72.70
2019-05-19T00:53:26.388Z,73.05
2019-05-19T00:55:55.819Z,73.45
2019-05-19T00:58:27.259Z,73.96
2019-05-19T01:00:55.752Z,73.75
2019-05-19T01:03:24.257Z,73.98
2019-05-19T01:05:52.760Z,73.91
2019-05-19T01:08:21.265Z,74.17
2019-05-19T01:10:49.812Z,74.28
2019-05-19T01:13:18.350Z,74.31
2019-05-19T01:15:46.841Z,74.33
2019-05-19T01:18:15.365Z,74.48
2019-05-19T01:20:44.035Z,74.11
2019-05-19T01:23:12.690Z,73.88
2019-05-19T01:25:41.242Z,73.78
2019-05-19T01:28:09.718Z,73.36
2019-05-19T01:30:38.349Z,73.53
2019-05-19T01:33:06.852Z,73.73
2019-05-19T01:35:35.373Z,73.63
2019-05-19T01:38:03.871Z,73.82
2019-05-19T01:40:32.467Z,74.17
2019-05-19T01:43:00.967Z,74.30
2019-05-19T01:45:29.539Z,73.91
2019-05-19T01:47:58.059Z,73.77
2019-05-19T01:50:26.618Z,73.52
2019-05-19T01:52:55.117Z,73.56
2019-05-19T01:55:23.637Z,73.58
2019-05-19T01:57:52.134Z,73.63
2019-05-19T02:00:21.686Z,73.68
2019-05-19T02:02:50.204Z,73.92
2019-05-19T02:05:18.857Z,73.84
2019-05-19T02:07:47.361Z,73.82
2019-05-19T02:10:16.123Z,73.87
2019-05-19T02:12:44.724Z,73.47
2019-05-19T02:15:15.075Z,73.52
2019-05-19T02:17:43.562Z,73.39
2019-05-19T02:20:12.496Z,73.20
2019-05-19T02:22:41.005Z,73.36
2019-05-19T02:25:09.973Z,73.20
2019-05-19T02:27:38.471Z,73.02
2019-05-19T02:30:10.467Z,73.18
2019-05-19T02:32:39.102Z,73.33
2019-05-19T02:35:08.201Z,73.61
2019-05-19T02:37:36.858Z,73.86
2019-05-19T02:40:08.920Z,73.96
2019-05-19T02:42:40.448Z,73.44
2019-05-19T02:45:09.946Z,73.94
2019-05-19T02:47:40.673Z,75.65
2019-05-19T02:50:10.188Z,75.96
2019-05-19T02:52:40.897Z,76.05
2019-05-19T02:55:09.593Z,76.49
2019-05-19T02:57:40.402Z,76.51
2019-05-19T03:00:09.566Z,76.96
2019-05-19T03:02:38.086Z,77.78
2019-05-19T03:05:06.935Z,78.64
2019-05-19T03:07:35.381Z,78.04
2019-05-19T03:10:05.000Z,78.32
2019-05-19T03:12:33.478Z,78.66
2019-05-19T03:15:01.921Z,78.12
2019-05-19T03:17:30.383Z,77.79
2019-05-19T03:19:58.879Z,78.67
2019-05-19T03:22:27.366Z,79.07
2019-05-19T03:24:55.836Z,79.06
2019-05-19T03:27:24.329Z,79.06
2019-05-19T03:29:54.431Z,78.60
2019-05-19T03:32:30.255Z,78.52
2019-05-19T03:34:58.734Z,79.41
2019-05-19T03:37:27.151Z,79.75
2019-05-19T03:39:55.641Z,79.68
2019-05-19T03:42:24.107Z,80.01
2019-05-19T03:44:52.605Z,80.34
2019-05-19T03:47:21.051Z,80.73
2019-05-19T03:49:49.557Z,80.74
2019-05-19T03:52:18.125Z,80.86
2019-05-19T03:54:46.617Z,80.87
2019-05-19T03:57:15.121Z,80.73
2019-05-19T03:59:43.586Z,81.43
2019-05-19T04:02:12.099Z,82.18
2019-05-19T04:04:40.590Z,81.54
2019-05-19T04:07:09.061Z,81.16
2019-05-19T04:09:37.554Z,81.32
2019-05-19T04:12:06.008Z,80.69
2019-05-19T04:14:34.483Z,80.24
2019-05-19T04:17:02.952Z,79.50
2019-05-19T04:19:31.433Z,80.18
2019-05-19T04:21:59.920Z,79.75
2019-05-19T04:24:28.401Z,79.52
2019-05-19T04:26:56.873Z,79.44
2019-05-19T04:29:25.352Z,79.37
2019-05-19T04:31:53.869Z,79.12
2019-05-19T04:34:22.361Z,78.25
2019-05-19T04:37:10.285Z,78.01
2019-05-19T04:39:38.765Z,77.65
2019-05-19T04:42:07.257Z,77.05
2019-05-19T04:44:35.713Z,77.87
2019-05-19T04:47:04.188Z,78.46
2019-05-19T04:49:32.656Z,79.04
2019-05-19T04:52:06.690Z,78.01
2019-05-19T04:54:31.340Z,78.21
2019-05-19T04:56:59.758Z,78.23
2019-05-19T04:59:28.217Z,78.51
2019-05-19T05:01:56.693Z,79.15
2019-05-19T05:04:29.148Z,78.87
2019-05-19T05:06:55.452Z,79.01
2019-05-19T05:09:23.949Z,79.94
2019-05-19T05:11:52.436Z,80.05
2019-05-19T05:14:20.919Z,79.40
2019-05-19T05:16:49.406Z,78.52
2019-05-19T05:19:17.884Z,79.18
2019-05-19T05:21:46.354Z,79.46
2019-05-19T05:24:14.837Z,79.38
2019-05-19T05:26:43.315Z,79.36
2019-05-19T05:29:11.812Z,79.29
2019-05-19T05:31:40.271Z,79.87
2019-05-19T05:34:08.764Z,79.65
2019-05-19T05:36:37.262Z,80.06
2019-05-19T05:39:06.800Z,79.79
2019-05-19T05:41:35.459Z,79.63
2019-05-19T05:44:04.010Z,79.85
2019-05-19T05:46:32.465Z,80.16
2019-05-19T05:49:00.960Z,80.37
2019-05-19T05:51:29.439Z,80.28
2019-05-19T05:53:57.939Z,80.02
2019-05-19T05:56:26.398Z,80.00
2019-05-19T05:58:54.866Z,79.54
2019-05-19T06:01:23.364Z,79.37
2019-05-19T06:03:51.808Z,79.20
2019-05-19T06:06:20.269Z,79.70
2019-05-19T06:08:48.760Z,80.17
2019-05-19T06:11:17.222Z,79.34
2019-05-19T06:13:45.809Z,80.07
2019-05-19T06:16:14.388Z,80.05
2019-05-19T06:18:42.880Z,79.58
2019-05-19T06:21:11.422Z,79.29
2019-05-19T06:23:39.908Z,78.42
2019-05-19T06:26:08.399Z,78.25
2019-05-19T06:28:36.848Z,78.97
2019-05-19T06:31:05.339Z,78.35
2019-05-19T06:33:33.883Z,78.44
2019-05-19T06:36:02.346Z,79.07
2019-05-19T06:38:30.842Z,78.88
2019-05-19T06:40:59.394Z,78.72
2019-05-19T06:43:28.062Z,78.50
2019-05-19T06:45:56.500Z,78.41
2019-05-19T06:48:25.028Z,77.55
2019-05-19T06:50:53.528Z,77.19
2019-05-19T06:53:21.999Z,76.89
2019-05-19T06:55:50.496Z,76.45
2019-05-19T06:58:18.945Z,75.66
2019-05-19T07:00:47.408Z,75.29
2019-05-19T07:03:15.976Z,75.74
2019-05-19T07:05:44.447Z,76.14
2019-05-19T07:08:13.023Z,76.35
2019-05-19T07:10:41.501Z,77.01
2019-05-19T07:13:09.976Z,76.29
2019-05-19T07:15:38.438Z,76.20
2019-05-19T07:18:06.919Z,76.51
2019-05-19T07:20:35.404Z,76.31
2019-05-19T07:23:03.926Z,76.32
2019-05-19T07:25:32.397Z,75.88
2019-05-19T07:28:00.899Z,75.85
2019-05-19T07:30:29.381Z,75.09
2019-05-19T07:32:57.833Z,76.84
2019-05-19T07:35:26.360Z,76.85
2019-05-19T07:37:54.857Z,77.00
2019-05-19T07:40:23.419Z,76.11
2019-05-19T07:42:51.894Z,77.02
2019-05-19T07:45:20.587Z,76.62
2019-05-19T07:47:49.065Z,75.66
2019-05-19T07:50:17.520Z,74.63
2019-05-19T07:52:46.008Z,74.39
2019-05-19T07:55:14.801Z,74.55
2019-05-19T07:57:43.262Z,74.58
2019-05-19T08:00:12.516Z,74.67
2019-05-19T08:02:40.982Z,75.10
2019-05-19T08:05:09.867Z,75.50
2019-05-19T08:07:38.396Z,75.55
2019-05-19T08:10:07.651Z,75.10
2019-05-19T08:12:36.133Z,75.72
2019-05-19T08:15:09.381Z,75.58
2019-05-19T08:17:37.903Z,76.01
2019-05-19T08:20:08.048Z,75.79
2019-05-19T08:22:36.554Z,75.80
2019-05-19T08:25:09.315Z,75.74
2019-05-19T08:27:37.791Z,75.93
2019-05-19T08:30:10.215Z,76.02
2019-05-19T08:32:38.670Z,75.04
2019-05-19T08:35:07.893Z,73.86
2019-05-19T08:37:36.380Z,73.32
2019-05-19T08:40:05.806Z,74.72
2019-05-19T08:42:34.285Z,74.79
2019-05-19T08:45:02.853Z,73.14
2019-05-19T08:47:31.336Z,73.22
2019-05-19T08:49:59.826Z,74.21
2019-05-19T08:52:28.308Z,73.27
2019-05-19T08:54:56.787Z,72.50
2019-05-19T08:57:25.343Z,71.76
2019-05-19T08:59:53.865Z,71.58
2019-05-19T09:02:22.335Z,71.66
2019-05-19T09:04:50.825Z,72.13
2019-05-19T09:07:19.414Z,71.35
2019-05-19T09:09:48.053Z,71.41
2019-05-19T09:12:16.566Z,70.41
2019-05-19T09:14:45.053Z,70.07
2019-05-19T09:17:13.550Z,70.16
2019-05-19T09:19:42.043Z,69.07
2019-05-19T09:22:10.504Z,69.52
2019-05-19T09:24:38.957Z,69.58
2019-05-19T09:27:07.443Z,70.26
2019-05-19T09:29:36.038Z,70.97
2019-05-19T09:32:04.579Z,71.09
2019-05-19T09:34:33.204Z,69.74
2019-05-19T09:37:01.664Z,69.48
2019-05-19T09:39:30.228Z,69.45
2019-05-19T09:41:58.793Z,69.20
2019-05-19T09:44:28.087Z,67.87
2019-05-19T09:46:56.568Z,67.64
2019-05-19T09:49:34.206Z,66.39
2019-05-19T09:52:04.226Z,66.35
2019-05-19T09:54:44.014Z,66.26
2019-05-19T09:57:02.981Z,64.74
2019-05-19T09:59:31.629Z,64.40
2019-05-19T10:02:00.115Z,64.62
2019-05-19T10:04:28.686Z,64.90
2019-05-19T10:06:57.229Z,63.94
2019-05-19T10:09:29.041Z,61.27
2019-05-19T10:12:02.517Z,61.94
2019-05-19T10:14:30.994Z,62.58
2019-05-19T10:16:59.520Z,62.16
2019-05-19T10:19:27.992Z,61.66
2019-05-19T10:21:56.533Z,62.27
2019-05-19T10:24:25.053Z,60.97
2019-05-19T10:26:53.505Z,59.19
2019-05-19T10:29:21.987Z,58.94
2019-05-19T10:31:54.231Z,58.63
2019-05-19T10:34:20.797Z,59.25
2019-05-19T10:36:49.315Z,59.12
2019-05-19T10:39:17.804Z,59.62
2019-05-19T10:41:46.236Z,60.55
2019-05-19T10:44:14.729Z,59.16
2019-05-19T10:46:43.209Z,59.00
2019-05-19T10:49:11.673Z,58.92
2019-05-19T10:51:40.142Z,58.14
2019-05-19T10:54:08.722Z,57.24
2019-05-19T10:56:37.206Z,57.45
2019-05-19T10:59:05.667Z,57.28
2019-05-19T11:01:34.179Z,56.57
2019-05-19T11:04:02.735Z,57.07
2019-05-19T11:06:31.190Z,57.85
2019-05-19T11:08:59.696Z,58.15
2019-05-19T11:11:28.193Z,58.12
2019-05-19T11:13:56.763Z,57.95
2019-05-19T11:16:25.222Z,56.78
2019-05-19T11:18:53.724Z,56.97
2019-05-19T11:21:22.236Z,57.51
2019-05-19T11:23:50.840Z,57.94
2019-05-19T11:26:19.261Z,57.67
2019-05-19T11:28:47.862Z,57.17
2019-05-19T11:31:16.304Z,56.88
2019-05-19T11:33:44.781Z,57.71
2019-05-19T11:36:13.345Z,57.61
2019-05-19T11:38:41.819Z,58.00
2019-05-19T11:41:10.290Z,57.56
2019-05-19T11:43:39.332Z,56.44
2019-05-19T11:46:07.794Z,56.28
2019-05-19T11:48:36.248Z,56.57
2019-05-19T11:51:04.717Z,56.24
2019-05-19T11:53:33.214Z,55.53
2019-05-19T11:56:07.165Z,54.70
2019-05-19T11:58:31.947Z,54.24
2019-05-19T12:01:00.442Z,54.22
2019-05-19T12:03:28.909Z,53.93
2019-05-19T12:05:57.387Z,52.38
2019-05-19T12:08:25.939Z,52.70
2019-05-19T12:10:54.467Z,53.41
2019-05-19T12:13:22.937Z,51.77
2019-05-19T12:15:51.520Z,52.85
2019-05-19T12:18:19.961Z,52.29
2019-05-19T12:20:48.539Z,52.33
2019-05-19T12:23:16.989Z,52.71
2019-05-19T12:25:45.469Z,54.46
2019-05-19T12:28:13.968Z,53.47
2019-05-19T12:30:42.431Z,53.96
2019-05-19T12:33:10.927Z,53.91
2019-05-19T12:35:39.407Z,54.21
2019-05-19T12:38:07.911Z,54.90
2019-05-19T12:40:36.406Z,53.97
2019-05-19T12:43:05.067Z,53.60
2019-05-19T12:45:33.580Z,54.10
2019-05-19T12:48:02.312Z,53.68
2019-05-19T12:50:30.940Z,54.89
2019-05-19T12:52:59.437Z,54.81
2019-05-19T12:55:27.935Z,55.02
2019-05-19T12:57:56.565Z,55.17
2019-05-19T13:00:25.069Z,55.79
2019-05-19T13:02:53.590Z,55.35
2019-05-19T13:05:22.285Z,55.92
2019-05-19T13:07:50.862Z,55.94
2019-05-19T13:10:19.419Z,56.52
2019-05-19T13:12:47.957Z,56.30
2019-05-19T13:15:16.831Z,55.10
2019-05-19T13:17:45.342Z,55.70
2019-05-19T13:20:14.213Z,55.64
2019-05-19T13:22:42.697Z,55.95
2019-05-19T13:25:11.302Z,55.31
2019-05-19T13:27:39.787Z,55.31
2019-05-19T13:30:08.534Z,56.00
2019-05-19T13:32:37.110Z,55.70
2019-05-19T13:35:07.246Z,55.87
2019-05-19T13:37:35.738Z,56.01
2019-05-19T13:40:05.789Z,56.37
2019-05-19T13:42:34.314Z,56.31
2019-05-19T13:45:02.868Z,56.71
2019-05-19T13:47:31.413Z,57.18
2019-05-19T13:50:00.017Z,57.06
2019-05-19T13:52:28.557Z,57.44
2019-05-19T13:54:57.083Z,57.07
2019-05-19T13:57:25.580Z,57.71
2019-05-19T13:59:54.105Z,57.47
2019-05-19T14:02:22.630Z,57.53
2019-05-19T14:04:51.254Z,57.40
2019-05-19T14:07:19.746Z,57.93
2019-05-19T14:09:48.277Z,57.94
2019-05-19T14:12:16.772Z,57.45
2019-05-19T14:14:45.398Z,57.11
2019-05-19T14:17:13.977Z,56.85
2019-05-19T14:19:42.453Z,56.88
2019-05-19T14:22:10.989Z,57.04
2019-05-19T14:24:39.502Z,56.87
2019-05-19T14:27:08.073Z,57.16
2019-05-19T14:29:36.588Z,57.15
2019-05-19T14:32:05.087Z,56.68
2019-05-19T14:34:33.631Z,58.55
2019-05-19T14:37:02.200Z,59.81
2019-05-19T14:39:30.710Z,60.81
2019-05-19T14:42:00.842Z,61.56
2019-05-19T14:44:29.396Z,61.25
2019-05-19T14:46:57.921Z,60.38
2019-05-19T14:49:26.403Z,59.61
2019-05-19T14:51:54.894Z,60.40
2019-05-19T14:54:23.572Z,59.41
2019-05-19T14:56:52.062Z,59.80
2019-05-19T14:59:20.575Z,59.32
2019-05-19T15:01:49.112Z,59.66
2019-05-19T15:04:17.604Z,58.97
2019-05-19T15:06:46.162Z,59.04
2019-05-19T15:09:14.677Z,59.30
2019-05-19T15:11:43.161Z,59.44
2019-05-19T15:14:11.701Z,59.69
2019-05-19T15:16:40.163Z,59.06
2019-05-19T15:19:08.636Z,59.19
2019-05-19T15:21:37.159Z,59.17
2019-05-19T15:24:05.667Z,59.75
2019-05-19T15:26:34.162Z,59.89
2019-05-19T15:29:02.643Z,60.57
2019-05-19T15:31:31.163Z,61.41
2019-05-19T15:33:59.648Z,62.02
2019-05-19T15:36:28.174Z,61.64
2019-05-19T15:38:56.706Z,61.76
2019-05-19T15:41:25.362Z,61.07
2019-05-19T15:43:54.017Z,60.68
2019-05-19T15:46:22.553Z,61.84
2019-05-19T15:48:51.032Z,62.02
2019-05-19T15:51:28.458Z,62.06
2019-05-19T15:53:49.793Z,62.43
2019-05-19T15:56:18.377Z,61.52
2019-05-19T15:58:47.178Z,61.20
2019-05-19T16:01:15.679Z,60.84
2019-05-19T16:03:44.189Z,61.42
2019-05-19T16:06:12.695Z,62.26
2019-05-19T16:08:41.195Z,62.61
2019-05-19T16:11:09.867Z,63.03
2019-05-19T16:13:38.419Z,63.31
2019-05-19T16:16:06.878Z,62.84
2019-05-19T16:18:35.388Z,63.17
2019-05-19T16:21:04.090Z,63.19
2019-05-19T16:23:32.582Z,64.29
2019-05-19T16:26:01.154Z,63.86
2019-05-19T16:28:30.977Z,64.27
2019-05-19T16:30:59.771Z,64.41
2019-05-19T16:33:28.437Z,65.07
2019-05-19T16:35:57.107Z,65.06
2019-05-19T16:38:25.610Z,64.66
2019-05-19T16:40:54.175Z,64.95
2019-05-19T16:43:22.693Z,67.23
2019-05-19T16:45:51.193Z,67.50
2019-05-19T16:48:19.724Z,67.24
2019-05-19T16:50:48.249Z,69.77
2019-05-19T16:53:16.793Z,71.39
2019-05-19T16:55:45.356Z,72.23
2019-05-19T16:58:20.990Z,73.32
2019-05-19T17:00:44.740Z,73.15
2019-05-19T17:03:13.227Z,75.18
2019-05-19T17:05:41.754Z,76.05
2019-05-19T17:08:10.342Z,76.90
2019-05-19T17:10:38.952Z,78.07
2019-05-19T17:13:07.453Z,77.92
2019-05-19T17:15:36.113Z,79.45
2019-05-19T17:18:07.997Z,80.72
2019-05-19T17:20:35.171Z,79.89
2019-05-19T17:23:03.673Z,79.89
2019-05-19T17:25:32.183Z,80.34
2019-05-19T17:28:00.939Z,80.60
2019-05-19T17:30:29.515Z,80.77
2019-05-19T17:32:58.482Z,80.34
2019-05-19T17:35:27.213Z,80.90
2019-05-19T17:37:55.717Z,81.01
2019-05-19T17:40:24.287Z,81.49
2019-05-19T17:42:52.798Z,81.03
2019-05-19T17:45:21.438Z,81.21
2019-05-19T17:47:53.210Z,81.21
2019-05-19T17:50:32.007Z,82.18
2019-05-19T17:53:00.784Z,82.82
2019-05-19T17:55:29.965Z,83.08
2019-05-19T17:57:58.806Z,82.47
2019-05-19T18:00:44.406Z,83.21
2019-05-19T18:03:13.119Z,83.05
2019-05-19T18:05:41.611Z,82.82
2019-05-19T18:08:10.230Z,82.49
2019-05-19T18:10:38.892Z,83.49
2019-05-19T18:13:07.613Z,83.80
2019-05-19T18:15:36.941Z,83.87
2019-05-19T18:18:05.501Z,84.62
2019-05-19T18:20:33.983Z,84.44
2019-05-19T18:23:02.713Z,84.39
2019-05-19T18:25:31.274Z,83.94
2019-05-19T18:27:59.775Z,84.51
2019-05-19T18:30:28.260Z,84.56
2019-05-19T18:32:56.923Z,84.71
2019-05-19T18:35:25.435Z,84.07
2019-05-19T18:37:53.944Z,83.71
2019-05-19T18:40:22.577Z,84.11
2019-05-19T18:42:51.189Z,83.65
2019-05-19T18:45:19.831Z,83.71
2019-05-19T18:47:48.350Z,83.11
2019-05-19T18:50:16.981Z,83.33
2019-05-19T18:52:45.502Z,83.53
2019-05-19T18:55:14.082Z,83.62
2019-05-19T18:57:42.632Z,84.21
2019-05-19T19:00:11.545Z,84.37
2019-05-19T19:02:40.498Z,83.67
2019-05-19T19:05:09.242Z,82.98
2019-05-19T19:07:48.484Z,83.64
2019-05-19T19:10:17.124Z,83.51
2019-05-19T19:12:45.796Z,83.82
2019-05-19T19:15:14.736Z,83.86
2019-05-19T19:17:43.393Z,83.87
2019-05-19T19:20:12.141Z,83.82
2019-05-19T19:22:40.652Z,84.16
2019-05-19T19:25:09.274Z,85.13
2019-05-19T19:27:37.825Z,84.75
2019-05-19T19:30:07.850Z,84.86
2019-05-19T19:32:36.426Z,84.42
2019-05-19T19:35:06.928Z,84.05
2019-05-19T19:37:35.417Z,83.22
2019-05-19T19:40:05.787Z,83.16
2019-05-19T19:42:34.301Z,83.68
2019-05-19T19:45:02.905Z,84.25
2019-05-19T19:47:31.453Z,84.04
2019-05-19T19:49:59.991Z,84.24
2019-05-19T19:52:28.589Z,84.73
2019-05-19T19:54:57.140Z,84.80
2019-05-19T19:57:25.628Z,84.44
2019-05-19T19:59:54.121Z,84.66
2019-05-19T20:02:22.658Z,85.58
2019-05-19T20:04:51.167Z,86.02
2019-05-19T20:07:19.822Z,86.35
2019-05-19T20:09:48.371Z,86.50
2019-05-19T20:12:16.873Z,86.46
2019-05-19T20:14:45.394Z,86.18
2019-05-19T20:17:13.890Z,85.35
2019-05-19T20:19:42.392Z,85.22
2019-05-19T20:22:10.899Z,85.41
2019-05-19T20:24:39.445Z,85.59
2019-05-19T20:27:08.014Z,85.63
2019-05-19T20:29:36.527Z,85.75
2019-05-19T20:32:05.298Z,85.36
2019-05-19T20:34:33.866Z,85.03
2019-05-19T20:37:02.388Z,85.43
2019-05-19T20:39:30.881Z,86.47
2019-05-19T20:41:59.387Z,86.97
2019-05-19T20:44:27.855Z,87.25
2019-05-19T20:46:56.396Z,87.30
2019-05-19T20:49:24.905Z,87.13
2019-05-19T20:51:53.480Z,86.40
2019-05-19T20:54:22.088Z,85.87
2019-05-19T20:56:50.585Z,85.17
2019-05-19T20:59:19.159Z,84.74
2019-05-19T21:01:47.658Z,85.12
2019-05-19T21:04:16.323Z,84.89
2019-05-19T21:06:44.805Z,85.09
2019-05-19T21:09:13.313Z,84.93
2019-05-19T21:11:42.091Z,84.91
2019-05-19T21:14:10.579Z,84.67
2019-05-19T21:16:39.062Z,84.55
2019-05-19T21:19:07.587Z,84.23
2019-05-19T21:21:36.071Z,84.67
2019-05-19T21:24:04.641Z,85.51
2019-05-19T21:26:33.231Z,85.84
2019-05-19T21:29:01.905Z,86.31
2019-05-19T21:31:30.425Z,86.50
2019-05-19T21:33:58.929Z,87.01
2019-05-19T21:36:27.802Z,87.46
2019-05-19T21:38:56.280Z,87.53
2019-05-19T21:41:24.764Z,87.61
2019-05-19T21:43:53.288Z,87.88
2019-05-19T21:46:22.116Z,88.05
2019-05-19T21:48:50.607Z,88.22
2019-05-19T21:51:19.106Z,88.31
2019-05-19T21:53:48.661Z,88.72
2019-05-19T21:56:17.173Z,89.02
2019-05-19T21:58:45.687Z,89.35
2019-05-19T22:01:22.817Z,88.79
2019-05-19T22:03:44.472Z,89.01
2019-05-19T22:06:13.057Z,89.01
2019-05-19T22:08:41.623Z,89.02
2019-05-19T22:11:10.135Z,88.79
2019-05-19T22:13:38.975Z,87.71
2019-05-19T22:16:12.872Z,87.46
2019-05-19T22:18:37.715Z,87.53
2019-05-19T22:21:06.294Z,87.00
2019-05-19T22:23:34.795Z,86.81
2019-05-19T22:26:03.330Z,86.76
2019-05-19T22:28:31.822Z,86.47
2019-05-19T22:31:00.317Z,86.89
2019-05-19T22:33:29.004Z,87.04
2019-05-19T22:35:57.499Z,86.39
2019-05-19T22:38:25.969Z,86.50
2019-05-19T22:40:54.490Z,86.56
2019-05-19T22:43:23.026Z,86.53
2019-05-19T22:45:51.552Z,86.33
2019-05-19T22:48:20.158Z,86.52
2019-05-19T22:50:48.643Z,86.74
2019-05-19T22:53:17.141Z,86.72
2019-05-19T22:55:45.648Z,86.84
2019-05-19T22:58:14.144Z,87.21
2019-05-19T23:00:42.776Z,87.01
2019-05-19T23:03:11.280Z,87.13
2019-05-19T23:05:39.783Z,87.12
2019-05-19T23:08:08.476Z,87.57
2019-05-19T23:10:36.993Z,87.73
2019-05-19T23:13:08.180Z,88.03
2019-05-19T23:15:35.821Z,88.05
2019-05-19T23:18:04.338Z,87.89
2019-05-19T23:20:32.897Z,88.06
2019-05-19T23:23:01.481Z,88.20
2019-05-19T23:25:29.985Z,87.88
2019-05-19T23:27:58.516Z,88.17
2019-05-19T23:30:27.028Z,88.26
2019-05-19T23:32:55.523Z,88.36
2019-05-19T23:35:24.056Z,88.26
2019-05-19T23:37:52.616Z,88.08
2019-05-19T23:40:21.112Z,87.86
2019-05-19T23:42:49.605Z,88.00
2019-05-19T23:45:18.367Z,88.02
2019-05-19T23:47:46.865Z,88.26
2019-05-19T23:50:15.520Z,87.74
2019-05-19T23:52:44.022Z,87.41
2019-05-19T23:55:12.668Z,87.42
2019-05-19T23:57:41.178Z,87.88
